Ag. Antonios — SV4218 — position and weather

sailwx.info

Track history (hours):
 
Tides and Currents Weather Stations Pressure Air Temp Water Temp Dewpoint Dewpoint Depression Visibility Wind Speed Wind Dir Waves Ship Positions

Ag. Antonios

Last reported at 2017-Nov-19 14:00 UTC. Time now 2017-Nov-19 14:23 UTC.
Position N 38°02' E 023°33'.

Length 67 m; draft 2 m.

Type: Cargo ship. MMSI: 237112600.

Date/timePositionNaut miles runAvg speedWind from/ knotsBaromVisibWave heightAir tempDewpointWater temp
2017-Nov-19 14:00N 38°02' E 023°33'0 0.0
2017-Nov-19 13:30N 38°02' E 023°33'0 0.0
2017-Nov-19 13:00N 38°02' E 023°33'0 0.0
2017-Nov-19 12:30N 38°02' E 023°33'0 0.0
2017-Nov-19 12:01N 38°02' E 023°33'0 0.0
2017-Nov-19 11:30N 38°02' E 023°33'0 0.0
2017-Nov-19 11:00N 38°02' E 023°33'0 0.0
2017-Nov-19 10:31N 38°02' E 023°33'0 0.0
2017-Nov-19 10:00N 38°02' E 023°33'0 0.0
2017-Nov-19 09:30N 38°02' E 023°33'0 0.0
2017-Nov-19 09:01N 38°02' E 023°33'0 0.0
2017-Nov-19 08:30N 38°02' E 023°33'0 0.0
2017-Nov-19 08:00N 38°02' E 023°33'0 0.0
2017-Nov-19 07:30N 38°02' E 023°33'0 0.0
2017-Nov-19 07:01N 38°02' E 023°33'0 0.0
2017-Nov-19 06:30N 38°02' E 023°33'0 0.0
2017-Nov-19 06:01N 38°02' E 023°33'1 2.9
2017-Nov-19 05:30N 38°01' E 023°33'4 8.4
2017-Nov-19 05:00N 37°57' E 023°35'2 4.0
2017-Nov-19 04:30N 37°55' E 023°34'0 0.5
2017-Nov-19 04:00N 37°55' E 023°35'2 3.7
2017-Nov-19 03:30N 37°53' E 023°36'4 8.3
2017-Nov-19 03:00N 37°50' E 023°39'4 8.7
2017-Nov-19 02:30N 37°46' E 023°42'5 8.8
2017-Nov-19 01:58N 37°42' E 023°44'4 8.5
2017-Nov-19 01:28N 37°40' E 023°49'  
2017-Nov-13 02:00N 38°02' E 023°33'0 0.0
2017-Nov-13 01:30N 38°02' E 023°33'0 0.0
2017-Nov-13 01:00N 38°02' E 023°33'0 0.0
2017-Nov-13 00:30N 38°02' E 023°33'0 0.0
2017-Nov-13 00:00N 38°02' E 023°33'0 0.0
2017-Nov-12 23:30N 38°02' E 023°33'0 0.0
2017-Nov-12 23:00N 38°02' E 023°33'0 0.0
2017-Nov-12 22:30N 38°02' E 023°33'0 0.0
2017-Nov-12 22:00N 38°02' E 023°33'0 0.0
2017-Nov-12 21:30N 38°02' E 023°33'0 0.0
2017-Nov-12 21:00N 38°02' E 023°33'0 0.0
2017-Nov-12 20:30N 38°02' E 023°33'0 0.0
2017-Nov-12 20:00N 38°02' E 023°33'0 0.0
2017-Nov-12 19:30N 38°02' E 023°33'0 0.0
2017-Nov-12 19:00N 38°02' E 023°33'0 0.0
2017-Nov-12 18:30N 38°02' E 023°33'0 0.0
2017-Nov-12 18:00N 38°02' E 023°33'0 0.0
2017-Nov-12 17:30N 38°02' E 023°33'0 0.0
2017-Nov-12 17:00N 38°02' E 023°33'0 0.0
2017-Nov-12 16:30N 38°02' E 023°33'3 5.3
2017-Nov-12 16:00N 37°59' E 023°33'5 9.6
2017-Nov-12 15:30N 37°55' E 023°35'510.9
2017-Nov-12 15:00N 37°50' E 023°39'510.9
2017-Nov-12 14:30N 37°46' E 023°42'510.9
2017-Nov-12 14:00N 37°41' E 023°46'610.5
2017-Nov-12 13:28N 37°39' E 023°53'43 6.9
2017-Nov-12 07:11N 37°40' E 024°47'210.7
2017-Nov-12 07:00N 37°38' E 024°48'510.7
2017-Nov-12 06:30N 37°33' E 024°49'510.8
2017-Nov-12 06:00N 37°28' E 024°50'510.8
2017-Nov-12 05:30N 37°22' E 024°52'611.0
2017-Nov-12 05:00N 37°18' E 024°55'510.9
2017-Nov-12 04:30N 37°14' E 024°60'510.5
2017-Nov-12 04:00N 37°10' E 025°04'510.4
2017-Nov-12 03:30N 37°05' E 025°08'0 0.2
2017-Nov-12 01:16N 37°05' E 025°08'5 9.3
2017-Nov-12 00:47N 37°09' E 025°11'310.3
2017-Nov-12 00:30N 37°10' E 025°15'5 9.5
2017-Nov-12 00:00N 37°08' E 025°20'2 4.4
2017-Nov-11 23:30N 37°06' E 025°22'0 0.0
2017-Nov-11 23:00N 37°06' E 025°22'0 0.0
2017-Nov-11 22:30N 37°06' E 025°22'0 0.0
2017-Nov-11 22:00N 37°06' E 025°22'0 0.0
2017-Nov-11 21:30N 37°06' E 025°22'0 0.0
2017-Nov-11 21:00N 37°06' E 025°22'4 7.8
2017-Nov-11 20:30N 37°03' E 025°20'23 0.5
2017-Nov-09 23:55N 37°10' E 025°48'410.0
2017-Nov-09 23:30N 37°11' E 025°43'9 9.5
2017-Nov-09 22:34N 37°13' E 025°32'1 9.0
2017-Nov-09 22:29N 37°14' E 025°31'4 8.9
2017-Nov-09 22:00N 37°15' E 025°26'4 8.8
2017-Nov-09 21:30N 37°16' E 025°21'5 9.4
2017-Nov-09 21:00N 37°17' E 025°15'5 9.9
2017-Nov-09 20:30N 37°18' E 025°09'5 9.8
2017-Nov-09 20:00N 37°19' E 025°03'5 9.7
2017-Nov-09 19:30N 37°21' E 024°57'5 9.5
2017-Nov-09 19:00N 37°22' E 024°51'5 9.9
2017-Nov-09 18:30N 37°24' E 024°45'  
Track history (hours):
 
Tides and Currents Weather Stations Pressure Air Temp Water Temp Dewpoint Dewpoint Depression Visibility Wind Speed Wind Dir Waves Ship Positions

Ag. Antonios

Last reported at 2017-Nov-19 14:00 UTC. Time now 2017-Nov-19 14:23 UTC.
Position N 38°02' E 023°33'.

Length 67 m; draft 2 m.

Type: Cargo ship. MMSI: 237112600.

Date/timePositionNaut miles runAvg speedWind from/ knotsBaromVisibWave heightAir tempDewpointWater temp
2017-Nov-19 14:00N 38°02' E 023°33'0 0.0
2017-Nov-19 13:30N 38°02' E 023°33'0 0.0
2017-Nov-19 13:00N 38°02' E 023°33'0 0.0
2017-Nov-19 12:30N 38°02' E 023°33'0 0.0
2017-Nov-19 12:01N 38°02' E 023°33'0 0.0
2017-Nov-19 11:30N 38°02' E 023°33'0 0.0
2017-Nov-19 11:00N 38°02' E 023°33'0 0.0
2017-Nov-19 10:31N 38°02' E 023°33'0 0.0
2017-Nov-19 10:00N 38°02' E 023°33'0 0.0
2017-Nov-19 09:30N 38°02' E 023°33'0 0.0
2017-Nov-19 09:01N 38°02' E 023°33'0 0.0
2017-Nov-19 08:30N 38°02' E 023°33'0 0.0
2017-Nov-19 08:00N 38°02' E 023°33'0 0.0
2017-Nov-19 07:30N 38°02' E 023°33'0 0.0
2017-Nov-19 07:01N 38°02' E 023°33'0 0.0
2017-Nov-19 06:30N 38°02' E 023°33'0 0.0
2017-Nov-19 06:01N 38°02' E 023°33'1 2.9
2017-Nov-19 05:30N 38°01' E 023°33'4 8.4
2017-Nov-19 05:00N 37°57' E 023°35'2 4.0
2017-Nov-19 04:30N 37°55' E 023°34'0 0.5
2017-Nov-19 04:00N 37°55' E 023°35'2 3.7
2017-Nov-19 03:30N 37°53' E 023°36'4 8.3
2017-Nov-19 03:00N 37°50' E 023°39'4 8.7
2017-Nov-19 02:30N 37°46' E 023°42'5 8.8
2017-Nov-19 01:58N 37°42' E 023°44'4 8.5
2017-Nov-19 01:28N 37°40' E 023°49'  
2017-Nov-13 02:00N 38°02' E 023°33'0 0.0
2017-Nov-13 01:30N 38°02' E 023°33'0 0.0
2017-Nov-13 01:00N 38°02' E 023°33'0 0.0
2017-Nov-13 00:30N 38°02' E 023°33'0 0.0
2017-Nov-13 00:00N 38°02' E 023°33'0 0.0
2017-Nov-12 23:30N 38°02' E 023°33'0 0.0
2017-Nov-12 23:00N 38°02' E 023°33'0 0.0
2017-Nov-12 22:30N 38°02' E 023°33'0 0.0
2017-Nov-12 22:00N 38°02' E 023°33'0 0.0
2017-Nov-12 21:30N 38°02' E 023°33'0 0.0
2017-Nov-12 21:00N 38°02' E 023°33'0 0.0
2017-Nov-12 20:30N 38°02' E 023°33'0 0.0
2017-Nov-12 20:00N 38°02' E 023°33'0 0.0
2017-Nov-12 19:30N 38°02' E 023°33'0 0.0
2017-Nov-12 19:00N 38°02' E 023°33'0 0.0
2017-Nov-12 18:30N 38°02' E 023°33'0 0.0
2017-Nov-12 18:00N 38°02' E 023°33'0 0.0
2017-Nov-12 17:30N 38°02' E 023°33'0 0.0
2017-Nov-12 17:00N 38°02' E 023°33'0 0.0
2017-Nov-12 16:30N 38°02' E 023°33'3 5.3
2017-Nov-12 16:00N 37°59' E 023°33'5 9.6
2017-Nov-12 15:30N 37°55' E 023°35'510.9
2017-Nov-12 15:00N 37°50' E 023°39'510.9
2017-Nov-12 14:30N 37°46' E 023°42'510.9
2017-Nov-12 14:00N 37°41' E 023°46'610.5
2017-Nov-12 13:28N 37°39' E 023°53'43 6.9
2017-Nov-12 07:11N 37°40' E 024°47'210.7
2017-Nov-12 07:00N 37°38' E 024°48'510.7
2017-Nov-12 06:30N 37°33' E 024°49'510.8
2017-Nov-12 06:00N 37°28' E 024°50'510.8
2017-Nov-12 05:30N 37°22' E 024°52'611.0
2017-Nov-12 05:00N 37°18' E 024°55'510.9
2017-Nov-12 04:30N 37°14' E 024°60'510.5
2017-Nov-12 04:00N 37°10' E 025°04'510.4
2017-Nov-12 03:30N 37°05' E 025°08'0 0.2
2017-Nov-12 01:16N 37°05' E 025°08'5 9.3
2017-Nov-12 00:47N 37°09' E 025°11'310.3
2017-Nov-12 00:30N 37°10' E 025°15'5 9.5
2017-Nov-12 00:00N 37°08' E 025°20'2 4.4
2017-Nov-11 23:30N 37°06' E 025°22'0 0.0
2017-Nov-11 23:00N 37°06' E 025°22'0 0.0
2017-Nov-11 22:30N 37°06' E 025°22'0 0.0
2017-Nov-11 22:00N 37°06' E 025°22'0 0.0
2017-Nov-11 21:30N 37°06' E 025°22'0 0.0
2017-Nov-11 21:00N 37°06' E 025°22'4 7.8
2017-Nov-11 20:30N 37°03' E 025°20'23 0.5
2017-Nov-09 23:55N 37°10' E 025°48'410.0
2017-Nov-09 23:30N 37°11' E 025°43'9 9.5
2017-Nov-09 22:34N 37°13' E 025°32'1 9.0
2017-Nov-09 22:29N 37°14' E 025°31'4 8.9
2017-Nov-09 22:00N 37°15' E 025°26'4 8.8
2017-Nov-09 21:30N 37°16' E 025°21'5 9.4
2017-Nov-09 21:00N 37°17' E 025°15'5 9.9
2017-Nov-09 20:30N 37°18' E 025°09'5 9.8
2017-Nov-09 20:00N 37°19' E 025°03'5 9.7
2017-Nov-09 19:30N 37°21' E 024°57'5 9.5
2017-Nov-09 19:00N 37°22' E 024°51'5 9.9
2017-Nov-09 18:30N 37°24' E 024°45'  

Dump ship's entire track history